Time;durP1;ratioP1;P1;durP2;ratioP2;P2;SDS_P1;SDS_P2;PMS_P1;PMS_P2;Temp;Humidity;BMP_temperature;BMP_pressure;BME280_temperature;BME280_humidity;BME280_pressure;Samples;Min_cycle;Max_cycle;Signal;HPM_P1;HPM_P2
2021/06/23 12:21:35;;;;;;;;;;;;;;;;;;73845;947;421061;-50
2021/06/23 12:21:56;;;;;;;;;;;;;;;;;;18426;964;420040;-48
2021/06/23 12:22:17;;;;;;;;;;;;;;;;;;18372;935;425932;-45
2021/06/23 12:22:44;;;;;;;;;;;;;;;;;;18381;960;420036;-45
2021/06/23 12:23:08;;;;;;;;;;;;;;;;;;18414;960;421044;-48
2021/06/23 12:23:28;;;;;;;;;;;;;;;;;;18365;964;426884;-47
2021/06/23 12:23:53;;;;;;;;;;;;;;;;;;18362;957;425890;-58
2021/06/23 12:24:13;;;;;;;;;;;;;;;;;;18421;968;421036;-48
2021/06/23 12:24:35;;;;;;;;;;;;;;;;;;18360;964;430887;-49
2021/06/23 12:24:59;;;;;;;;;;;;;;;;;;18367;961;422887;-53
2021/06/23 12:25:20;;;;;;;;;;;;;;;;;;18419;961;424035;-54
2021/06/23 12:25:41;;;;;;;;;;;;;;;;;;18359;969;428882;-52
2021/06/23 12:26:02;;;;;;;;;;;;;;;;;;18380;957;422043;-53
2021/06/23 12:26:23;;;;;;;;;;;;;;;;;;18412;929;423036;-59
2021/06/23 12:26:44;;;;;;;;;;;;;;;;;;18371;937;423036;-49
2021/06/23 12:27:05;;;;;;;;;;;;;;;;;;18384;960;421040;-57
2021/06/23 12:27:26;;;;;;;;;;;;;;;;;;18422;949;419044;-56
2021/06/23 12:27:47;;;;;;;;;;;;;;;;;;18359;964;431225;-53
2021/06/23 12:28:10;;;;;;;;;;;;;;;;;;18384;960;422044;-54
2021/06/23 12:36:33;;;;;;;;;;;;;;;;;;5273;13963;435016;-65
2021/06/23 12:36:54;;;;;;;;;;;;;;;;;;1314;13976;435016;-48
2021/06/23 12:37:15;;;;;;;;;;;;;;;;;;1312;13981;439884;-49
2021/06/23 12:37:36;;;;;;;;;;;;;;;;;;1313;13950;436907;-49
2021/06/23 12:37:57;;;;;;;;;;;;;;;;;;1315;13973;435031;-38
2021/06/23 12:38:18;;;;;;;;;;;;;;;;;;1313;13973;438880;-51
2021/06/23 12:38:39;;;;;;;;;;;;;;;;;;1313;13980;434016;-51
2021/06/23 12:39:00;;;;;;;;;;;;;;;;;;1316;13972;435024;-51
2021/06/23 12:39:21;;;;;;;;;;;;;;;;;;1314;13980;434016;-51
2021/06/23 12:39:41;;;;;;;;;;;;;;;;;;1313;13976;436012;-49
2021/06/23 12:40:02;;;;;;;;;;;;;;;;;;1316;13980;434012;-49
2021/06/23 12:43:20;;;;;;;;;;;;;;;;;;1;1000000000;0;-52
2021/06/23 12:43:21;;;;;;;;;;;;;;;;;;1;1000000000;0;-53
2021/06/23 12:43:22;;;;;;;;;;;;;;;;;;1;1000000000;0;-51
2021/06/23 12:43:23;;;;;;;;;;;;;;;;;;1;1000000000;0;-53
2021/06/23 12:43:24;;;;;;;;;;;;;;;;;;1;1000000000;0;-59
2021/06/23 12:43:24;;;;;;;;;;;;;;;;;;1;1000000000;0;-54
2021/06/23 12:43:25;;;;;;;;;;;;;;;;;;1;1000000000;0;-55
2021/06/23 12:43:26;;;;;;;;;;;;;;;;;;1;1000000000;0;-60
2021/06/23 12:43:27;;;;;;;;;;;;;;;;;;1;1000000000;0;-65
2021/06/23 12:43:28;;;;;;;;;;;;;;;;;;1;1000000000;0;-61
2021/06/23 12:43:29;;;;;;;;;;;;;;;;;;1;1000000000;0;-61
2021/06/23 12:43:29;;;;;;;;;;;;;;;;;;1;1000000000;0;-55
2021/06/23 12:43:30;;;;;;;;;;;;;;;;;;1;1000000000;0;-62
2021/06/23 12:43:31;;;;;;;;;;;;;;;;;;1;1000000000;0;-67
2021/06/23 12:43:32;;;;;;;;;;;;;;;;;;1;1000000000;0;-63
2021/06/23 12:43:33;;;;;;;;;;;;;;;;;;1;1000000000;0;-62
2021/06/23 12:43:34;;;;;;;;;;;;;;;;;;1;1000000000;0;-64
2021/06/23 12:43:34;;;;;;;;;;;;;;;;;;1;1000000000;0;-64
2021/06/23 12:43:35;;;;;;;;;;;;;;;;;;1;1000000000;0;-62
2021/06/23 12:43:36;;;;;;;;;;;;;;;;;;1;1000000000;0;-60
2021/06/23 12:43:37;;;;;;;;;;;;;;;;;;1;1000000000;0;-60
2021/06/23 12:43:38;;;;;;;;;;;;;;;;;;1;1000000000;0;-63
2021/06/23 12:43:39;;;;;;;;;;;;;;;;;;1;1000000000;0;-60
2021/06/23 12:43:39;;;;;;;;;;;;;;;;;;1;1000000000;0;-66
2021/06/23 12:43:41;;;;;;;;;;;;;;;;;;1;1000000000;0;-61
2021/06/23 12:43:42;;;;;;;;;;;;;;;;;;1;1000000000;0;-65
2021/06/23 12:43:43;;;;;;;;;;;;;;;;;;1;1000000000;0;-58
2021/06/23 12:43:44;;;;;;;;;;;;;;;;;;1;1000000000;0;-61
2021/06/23 12:43:44;;;;;;;;;;;;;;;;;;1;1000000000;0;-62
2021/06/23 12:43:45;;;;;;;;;;;;;;;;;;1;1000000000;0;-63
2021/06/23 12:43:46;;;;;;;;;;;;;;;;;;1;1000000000;0;-66
2021/06/23 12:43:47;;;;;;;;;;;;;;;;;;1;1000000000;0;-62
2021/06/23 12:43:51;;;;;;;;;;;;;;;;;;1;1000000000;0;-60
2021/06/23 12:43:51;;;;;;;;;;;;;;;;;;1;1000000000;0;-62
2021/06/23 12:43:52;;;;;;;;;;;;;;;;;;1;1000000000;0;-60
2021/06/23 12:43:53;;;;;;;;;;;;;;;;;;1;1000000000;0;-60
2021/06/23 12:43:53;;;;;;;;;;;;;;;;;;1;1000000000;0;-61
2021/06/23 12:43:54;;;;;;;;;;;;;;;;;;1;1000000000;0;-66
2021/06/23 12:43:55;;;;;;;;;;;;;;;;;;1;1000000000;0;-57
2021/06/23 12:43:56;;;;;;;;;;;;;;;;;;1;1000000000;0;-57
2021/06/23 12:43:56;;;;;;;;;;;;;;;;;;1;1000000000;0;-59
2021/06/23 12:43:58;;;;;;;;;;;;;;;;;;1;1000000000;0;-65
2021/06/23 12:43:58;;;;;;;;;;;;;;;;;;1;1000000000;0;-49
2021/06/23 12:43:59;;;;;;;;;;;;;;;;;;1;1000000000;0;-56
2021/06/23 12:44:00;;;;;;;;;;;;;;;;;;1;1000000000;0;-60
2021/06/23 12:44:01;;;;;;;;;;;;;;;;;;1;1000000000;0;-69
2021/06/23 12:44:01;;;;;;;;;;;;;;;;;;1;1000000000;0;-62
2021/06/23 12:44:02;;;;;;;;;;;;;;;;;;1;1000000000;0;-59
2021/06/23 12:44:03;;;;;;;;;;;;;;;;;;1;1000000000;0;-60
2021/06/23 12:44:05;;;;;;;;;;;;;;;;;;1;1000000000;0;-65
2021/06/23 12:44:06;;;;;;;;;;;;;;;;;;1;1000000000;0;-63
2021/06/23 12:44:07;;;;;;;;;;;;;;;;;;1;1000000000;0;-63
2021/06/23 12:44:07;;;;;;;;;;;;;;;;;;1;1000000000;0;-62
2021/06/23 12:44:09;;;;;;;;;;;;;;;;;;1;1000000000;0;-67
2021/06/23 12:44:09;;;;;;;;;;;;;;;;;;1;1000000000;0;-58
2021/06/23 12:44:10;;;;;;;;;;;;;;;;;;1;1000000000;0;-68
2021/06/23 12:44:11;;;;;;;;;;;;;;;;;;1;1000000000;0;-74
2021/06/23 12:44:12;;;;;;;;;;;;;;;;;;1;1000000000;0;-58
2021/06/23 12:44:12;;;;;;;;;;;;;;;;;;1;1000000000;0;-56
2021/06/23 12:44:13;;;;;;;;;;;;;;;;;;1;1000000000;0;-60
2021/06/23 12:44:14;;;;;;;;;;;;;;;;;;1;1000000000;0;-67
2021/06/23 12:44:15;;;;;;;;;;;;;;;;;;1;1000000000;0;-61
2021/06/23 12:44:16;;;;;;;;;;;;;;;;;;1;1000000000;0;-60
2021/06/23 12:44:16;;;;;;;;;;;;;;;;;;1;1000000000;0;-62
2021/06/23 12:44:17;;;;;;;;;;;;;;;;;;1;1000000000;0;-60
2021/06/23 12:44:18;;;;;;;;;;;;;;;;;;1;1000000000;0;-62
2021/06/23 12:44:19;;;;;;;;;;;;;;;;;;1;1000000000;0;-60
2021/06/23 12:44:20;;;;;;;;;;;;;;;;;;1;1000000000;0;-65
2021/06/23 12:44:21;;;;;;;;;;;;;;;;;;1;1000000000;0;-68
2021/06/23 12:44:22;;;;;;;;;;;;;;;;;;1;1000000000;0;-62
2021/06/23 12:44:22;;;;;;;;;;;;;;;;;;1;1000000000;0;-69
2021/06/23 12:44:23;;;;;;;;;;;;;;;;;;1;1000000000;0;-71
2021/06/23 12:44:24;;;;;;;;;;;;;;;;;;1;1000000000;0;-63
2021/06/23 12:44:25;;;;;;;;;;;;;;;;;;1;1000000000;0;-64
2021/06/23 12:44:26;;;;;;;;;;;;;;;;;;1;1000000000;0;-68
2021/06/23 12:44:26;;;;;;;;;;;;;;;;;;1;1000000000;0;-58
2021/06/23 12:44:27;;;;;;;;;;;;;;;;;;1;1000000000;0;-61
2021/06/23 12:44:28;;;;;;;;;;;;;;;;;;1;1000000000;0;-65
2021/06/23 12:44:29;;;;;;;;;;;;;;;;;;1;1000000000;0;-62
2021/06/23 12:44:30;;;;;;;;;;;;;;;;;;1;1000000000;0;-78
2021/06/23 12:44:31;;;;;;;;;;;;;;;;;;1;1000000000;0;-57
2021/06/23 12:44:32;;;;;;;;;;;;;;;;;;1;1000000000;0;-58
2021/06/23 12:44:32;;;;;;;;;;;;;;;;;;1;1000000000;0;-56
2021/06/23 12:44:33;;;;;;;;;;;;;;;;;;1;1000000000;0;-57
2021/06/23 12:44:34;;;;;;;;;;;;;;;;;;1;1000000000;0;-62
2021/06/23 12:44:36;;;;;;;;;;;;;;;;;;1;1000000000;0;-60
2021/06/23 12:44:37;;;;;;;;;;;;;;;;;;1;1000000000;0;-60
2021/06/23 12:44:39;;;;;;;;;;;;;;;;;;1;1000000000;0;-58
2021/06/23 12:44:40;;;;;;;;;;;;;;;;;;1;1000000000;0;-62
2021/06/23 12:44:42;;;;;;;;;;;;;;;;;;1;1000000000;0;-59
2021/06/23 12:44:43;;;;;;;;;;;;;;;;;;1;1000000000;0;-70
2021/06/23 12:44:44;;;;;;;;;;;;;;;;;;1;1000000000;0;-66
2021/06/23 12:44:45;;;;;;;;;;;;;;;;;;1;1000000000;0;-62
2021/06/23 12:44:46;;;;;;;;;;;;;;;;;;1;1000000000;0;-64
2021/06/23 12:44:47;;;;;;;;;;;;;;;;;;1;1000000000;0;-65
2021/06/23 12:44:47;;;;;;;;;;;;;;;;;;1;1000000000;0;-54
2021/06/23 12:44:48;;;;;;;;;;;;;;;;;;1;1000000000;0;-53
2021/06/23 12:44:49;;;;;;;;;;;;;;;;;;1;1000000000;0;-59
2021/06/23 12:44:50;;;;;;;;;;;;;;;;;;1;1000000000;0;-62
2021/06/23 12:44:53;;;;;;;;;;;;;;;;;;1;1000000000;0;-65
2021/06/23 12:44:55;;;;;;;;;;;;;;;;;;1;1000000000;0;-61
2021/06/23 12:44:56;;;;;;;;;;;;;;;;;;1;1000000000;0;-65
2021/06/23 12:44:57;;;;;;;;;;;;;;;;;;1;1000000000;0;-66
2021/06/23 12:44:57;;;;;;;;;;;;;;;;;;1;1000000000;0;-66
2021/06/23 12:44:58;;;;;;;;;;;;;;;;;;1;1000000000;0;-63
2021/06/23 12:44:59;;;;;;;;;;;;;;;;;;1;1000000000;0;-66
2021/06/23 12:45:00;;;;;;;;;;;;;;;;;;1;1000000000;0;-65
2021/06/23 12:45:01;;;;;;;;;;;;;;;;;;1;1000000000;0;-56
2021/06/23 12:45:02;;;;;;;;;;;;;;;;;;1;1000000000;0;-56
2021/06/23 12:45:03;;;;;;;;;;;;;;;;;;1;1000000000;0;-60
2021/06/23 12:45:03;;;;;;;;;;;;;;;;;;1;1000000000;0;-57
2021/06/23 12:45:04;;;;;;;;;;;;;;;;;;1;1000000000;0;-56
2021/06/23 12:45:05;;;;;;;;;;;;;;;;;;1;1000000000;0;-58
2021/06/23 12:45:06;;;;;;;;;;;;;;;;;;1;1000000000;0;-63
2021/06/23 12:45:07;;;;;;;;;;;;;;;;;;1;1000000000;0;-67
2021/06/23 12:45:08;;;;;;;;;;;;;;;;;;1;1000000000;0;-66
2021/06/23 12:45:08;;;;;;;;;;;;;;;;;;1;1000000000;0;-66
2021/06/23 12:45:11;;;;;;;;;;;;;;;;;;1;1000000000;0;-71
2021/06/23 12:45:12;;;;;;;;;;;;;;;;;;1;1000000000;0;-68
2021/06/23 12:45:12;;;;;;;;;;;;;;;;;;1;1000000000;0;-64
2021/06/23 12:45:13;;;;;;;;;;;;;;;;;;1;1000000000;0;-61
2021/06/23 12:45:14;;;;;;;;;;;;;;;;;;1;1000000000;0;-64
2021/06/23 12:45:15;;;;;;;;;;;;;;;;;;1;1000000000;0;-61
2021/06/23 12:45:16;;;;;;;;;;;;;;;;;;1;1000000000;0;-61
2021/06/23 12:45:17;;;;;;;;;;;;;;;;;;1;1000000000;0;-60
2021/06/23 12:45:18;;;;;;;;;;;;;;;;;;1;1000000000;0;-60
2021/06/23 12:45:18;;;;;;;;;;;;;;;;;;1;1000000000;0;-60
2021/06/23 12:45:19;;;;;;;;;;;;;;;;;;1;1000000000;0;-60
2021/06/23 12:45:20;;;;;;;;;;;;;;;;;;1;1000000000;0;-61
2021/06/23 12:45:21;;;;;;;;;;;;;;;;;;1;1000000000;0;-62
2021/06/23 12:45:22;;;;;;;;;;;;;;;;;;1;1000000000;0;-63
2021/06/23 12:45:22;;;;;;;;;;;;;;;;;;1;1000000000;0;-63
2021/06/23 12:45:23;;;;;;;;;;;;;;;;;;1;1000000000;0;-65
2021/06/23 12:45:24;;;;;;;;;;;;;;;;;;1;1000000000;0;-64
2021/06/23 12:45:25;;;;;;;;;;;;;;;;;;1;1000000000;0;-62
2021/06/23 12:45:26;;;;;;;;;;;;;;;;;;1;1000000000;0;-64
2021/06/23 12:45:27;;;;;;;;;;;;;;;;;;1;1000000000;0;-62
2021/06/23 12:45:28;;;;;;;;;;;;;;;;;;1;1000000000;0;-62
2021/06/23 12:45:29;;;;;;;;;;;;;;;;;;1;1000000000;0;-63
2021/06/23 12:45:30;;;;;;;;;;;;;;;;;;1;1000000000;0;-62
2021/06/23 12:45:30;;;;;;;;;;;;;;;;;;1;1000000000;0;-64
2021/06/23 12:45:31;;;;;;;;;;;;;;;;;;1;1000000000;0;-64
2021/06/23 12:45:32;;;;;;;;;;;;;;;;;;1;1000000000;0;-63
2021/06/23 12:45:33;;;;;;;;;;;;;;;;;;1;1000000000;0;-63
2021/06/23 12:45:34;;;;;;;;;;;;;;;;;;1;1000000000;0;-63
2021/06/23 12:45:35;;;;;;;;;;;;;;;;;;1;1000000000;0;-64
2021/06/23 12:45:36;;;;;;;;;;;;;;;;;;1;1000000000;0;-63
2021/06/23 12:45:37;;;;;;;;;;;;;;;;;;1;1000000000;0;-60
2021/06/23 12:45:38;;;;;;;;;;;;;;;;;;1;1000000000;0;-59
2021/06/23 12:45:39;;;;;;;;;;;;;;;;;;1;1000000000;0;-60
2021/06/23 12:45:40;;;;;;;;;;;;;;;;;;1;1000000000;0;-61
2021/06/23 12:45:41;;;;;;;;;;;;;;;;;;1;1000000000;0;-58
2021/06/23 12:45:42;;;;;;;;;;;;;;;;;;1;1000000000;0;-55
2021/06/23 12:45:43;;;;;;;;;;;;;;;;;;1;1000000000;0;-55
2021/06/23 12:45:44;;;;;;;;;;;;;;;;;;1;1000000000;0;-54
2021/06/23 12:45:48;;;;;;;;;;;;;;;;;;1;1000000000;0;-54
2021/06/23 12:45:51;;;;;;;;;;;;;;;;;;1;1000000000;0;-63
2021/06/23 12:45:51;;;;;;;;;;;;;;;;;;1;1000000000;0;-56
2021/06/23 12:45:52;;;;;;;;;;;;;;;;;;1;1000000000;0;-56
2021/06/23 12:45:53;;;;;;;;;;;;;;;;;;1;1000000000;0;-55
2021/06/23 12:45:54;;;;;;;;;;;;;;;;;;1;1000000000;0;-56
2021/06/23 12:45:55;;;;;;;;;;;;;;;;;;1;1000000000;0;-57
2021/06/23 12:45:56;;;;;;;;;;;;;;;;;;1;1000000000;0;-60
2021/06/23 12:45:56;;;;;;;;;;;;;;;;;;1;1000000000;0;-58
2021/06/23 12:45:57;;;;;;;;;;;;;;;;;;1;1000000000;0;-56
2021/06/23 12:45:58;;;;;;;;;;;;;;;;;;1;1000000000;0;-59
2021/06/23 12:45:59;;;;;;;;;;;;;;;;;;1;1000000000;0;-61
2021/06/23 12:46:00;;;;;;;;;;;;;;;;;;1;1000000000;0;-61
2021/06/23 12:46:01;;;;;;;;;;;;;;;;;;1;1000000000;0;-60
2021/06/23 12:46:02;;;;;;;;;;;;;;;;;;1;1000000000;0;-60
2021/06/23 12:46:02;;;;;;;;;;;;;;;;;;1;1000000000;0;-59
2021/06/23 12:46:03;;;;;;;;;;;;;;;;;;1;1000000000;0;-59
2021/06/23 12:46:04;;;;;;;;;;;;;;;;;;1;1000000000;0;-59
2021/06/23 12:46:05;;;;;;;;;;;;;;;;;;1;1000000000;0;-58
2021/06/23 12:46:06;;;;;;;;;;;;;;;;;;1;1000000000;0;-55
2021/06/23 12:46:07;;;;;;;;;;;;;;;;;;1;1000000000;0;-57
2021/06/23 12:46:07;;;;;;;;;;;;;;;;;;1;1000000000;0;-53
2021/06/23 12:46:08;;;;;;;;;;;;;;;;;;1;1000000000;0;-57
2021/06/23 12:46:08;;;;;;;;;;;;;;;;;;1;1000000000;0;-65
2021/06/23 12:46:10;;;;;;;;;;;;;;;;;;1;1000000000;0;-65
2021/06/23 12:46:11;;;;;;;;;;;;;;;;;;1;1000000000;0;-71
2021/06/23 12:46:12;;;;;;;;;;;;;;;;;;1;1000000000;0;-68
2021/06/23 12:46:13;;;;;;;;;;;;;;;;;;1;1000000000;0;-64
2021/06/23 12:46:13;;;;;;;;;;;;;;;;;;1;1000000000;0;-61
2021/06/23 12:46:14;;;;;;;;;;;;;;;;;;1;1000000000;0;-60
2021/06/23 12:46:14;;;;;;;;;;;;;;;;;;1;1000000000;0;-61
2021/06/23 12:46:15;;;;;;;;;;;;;;;;;;1;1000000000;0;-63
2021/06/23 12:46:16;;;;;;;;;;;;;;;;;;1;1000000000;0;-68
2021/06/23 12:46:17;;;;;;;;;;;;;;;;;;1;1000000000;0;-60
2021/06/23 12:46:18;;;;;;;;;;;;;;;;;;1;1000000000;0;-63
2021/06/23 12:46:18;;;;;;;;;;;;;;;;;;1;1000000000;0;-61
2021/06/23 12:46:19;;;;;;;;;;;;;;;;;;1;1000000000;0;-65
2021/06/23 12:46:20;;;;;;;;;;;;;;;;;;1;1000000000;0;-60
2021/06/23 12:46:21;;;;;;;;;;;;;;;;;;1;1000000000;0;-60
2021/06/23 12:46:22;;;;;;;;;;;;;;;;;;1;1000000000;0;-59
2021/06/23 12:46:22;;;;;;;;;;;;;;;;;;1;1000000000;0;-64
2021/06/23 12:46:23;;;;;;;;;;;;;;;;;;1;1000000000;0;-62
2021/06/23 12:46:24;;;;;;;;;;;;;;;;;;1;1000000000;0;-57
2021/06/23 12:46:24;;;;;;;;;;;;;;;;;;1;1000000000;0;-57
2021/06/23 12:46:25;;;;;;;;;;;;;;;;;;1;1000000000;0;-57
2021/06/23 12:46:25;;;;;;;;;;;;;;;;;;1;1000000000;0;-58
2021/06/23 12:46:26;;;;;;;;;;;;;;;;;;1;1000000000;0;-56
2021/06/23 12:46:27;;;;;;;;;;;;;;;;;;1;1000000000;0;-57
2021/06/23 12:46:28;;;;;;;;;;;;;;;;;;1;1000000000;0;-58
2021/06/23 12:46:29;;;;;;;;;;;;;;;;;;1;1000000000;0;-58
2021/06/23 12:46:29;;;;;;;;;;;;;;;;;;1;1000000000;0;-57
2021/06/23 12:46:30;;;;;;;;;;;;;;;;;;1;1000000000;0;-63
2021/06/23 12:46:31;;;;;;;;;;;;;;;;;;1;1000000000;0;-60
2021/06/23 12:46:31;;;;;;;;;;;;;;;;;;1;1000000000;0;-64
2021/06/23 12:46:33;;;;;;;;;;;;;;;;;;1;1000000000;0;-62
2021/06/23 12:46:34;;;;;;;;;;;;;;;;;;1;1000000000;0;-62
2021/06/23 12:46:34;;;;;;;;;;;;;;;;;;1;1000000000;0;-63
2021/06/23 12:46:35;;;;;;;;;;;;;;;;;;1;1000000000;0;-61
2021/06/23 12:46:35;;;;;;;;;;;;;;;;;;1;1000000000;0;-60
2021/06/23 12:46:36;;;;;;;;;;;;;;;;;;1;1000000000;0;-60
2021/06/23 12:46:37;;;;;;;;;;;;;;;;;;1;1000000000;0;-61
2021/06/23 12:46:39;;;;;;;;;;;;;;;;;;1;1000000000;0;-57
2021/06/23 12:46:40;;;;;;;;;;;;;;;;;;1;1000000000;0;-59
2021/06/23 12:46:41;;;;;;;;;;;;;;;;;;1;1000000000;0;-61
2021/06/23 12:46:42;;;;;;;;;;;;;;;;;;1;1000000000;0;-64
2021/06/23 12:46:43;;;;;;;;;;;;;;;;;;1;1000000000;0;-59
2021/06/23 12:46:44;;;;;;;;;;;;;;;;;;1;1000000000;0;-68
2021/06/23 12:46:45;;;;;;;;;;;;;;;;;;1;1000000000;0;-62
2021/06/23 12:46:46;;;;;;;;;;;;;;;;;;1;1000000000;0;-58
2021/06/23 12:46:46;;;;;;;;;;;;;;;;;;1;1000000000;0;-53
2021/06/23 12:46:47;;;;;;;;;;;;;;;;;;1;1000000000;0;-53
2021/06/23 12:46:48;;;;;;;;;;;;;;;;;;1;1000000000;0;-50
2021/06/23 12:46:49;;;;;;;;;;;;;;;;;;1;1000000000;0;-63
2021/06/23 12:46:50;;;;;;;;;;;;;;;;;;1;1000000000;0;-61
2021/06/23 12:46:50;;;;;;;;;;;;;;;;;;1;1000000000;0;-63
2021/06/23 12:46:51;;;;;;;;;;;;;;;;;;1;1000000000;0;-53
2021/06/23 12:46:52;;;;;;;;;;;;;;;;;;1;1000000000;0;-59
2021/06/23 12:46:52;;;;;;;;;;;;;;;;;;1;1000000000;0;-50
2021/06/23 12:46:53;;;;;;;;;;;;;;;;;;1;1000000000;0;-52
2021/06/23 12:46:55;;;;;;;;;;;;;;;;;;1;1000000000;0;-50
2021/06/23 12:46:55;;;;;;;;;;;;;;;;;;1;1000000000;0;-52
2021/06/23 12:46:56;;;;;;;;;;;;;;;;;;1;1000000000;0;-52
2021/06/23 12:46:57;;;;;;;;;;;;;;;;;;1;1000000000;0;-53
2021/06/23 12:46:58;;;;;;;;;;;;;;;;;;1;1000000000;0;-54
2021/06/23 12:46:58;;;;;;;;;;;;;;;;;;1;1000000000;0;-54
2021/06/23 12:47:00;;;;;;;;;;;;;;;;;;1;1000000000;0;-50
2021/06/23 12:47:01;;;;;;;;;;;;;;;;;;1;1000000000;0;-59
2021/06/23 12:47:01;;;;;;;;;;;;;;;;;;1;1000000000;0;-58
2021/06/23 12:47:02;;;;;;;;;;;;;;;;;;1;1000000000;0;-57
2021/06/23 12:47:03;;;;;;;;;;;;;;;;;;1;1000000000;0;-52
2021/06/23 12:47:04;;;;;;;;;;;;;;;;;;1;1000000000;0;-51
2021/06/23 12:47:04;;;;;;;;;;;;;;;;;;1;1000000000;0;-57
2021/06/23 12:47:05;;;;;;;;;;;;;;;;;;1;1000000000;0;-53
2021/06/23 12:47:06;;;;;;;;;;;;;;;;;;1;1000000000;0;-53
2021/06/23 12:47:07;;;;;;;;;;;;;;;;;;1;1000000000;0;-54
2021/06/23 12:47:08;;;;;;;;;;;;;;;;;;1;1000000000;0;-53
2021/06/23 12:47:08;;;;;;;;;;;;;;;;;;1;1000000000;0;-53
2021/06/23 12:47:09;;;;;;;;;;;;;;;;;;1;1000000000;0;-56
2021/06/23 12:47:10;;;;;;;;;;;;;;;;;;1;1000000000;0;-61
2021/06/23 12:47:11;;;;;;;;;;;;;;;;;;1;1000000000;0;-57
2021/06/23 12:47:12;;;;;;;;;;;;;;;;;;1;1000000000;0;-52
2021/06/23 12:47:13;;;;;;;;;;;;;;;;;;1;1000000000;0;-52
2021/06/23 12:47:13;;;;;;;;;;;;;;;;;;1;1000000000;0;-52
2021/06/23 12:47:14;;;;;;;;;;;;;;;;;;1;1000000000;0;-53
2021/06/23 12:47:14;;;;;;;;;;;;;;;;;;1;1000000000;0;-53
2021/06/23 12:47:15;;;;;;;;;;;;;;;;;;1;1000000000;0;-53
2021/06/23 12:47:16;;;;;;;;;;;;;;;;;;1;1000000000;0;-50
2021/06/23 12:47:16;;;;;;;;;;;;;;;;;;1;1000000000;0;-51
2021/06/23 12:47:17;;;;;;;;;;;;;;;;;;1;1000000000;0;-50
2021/06/23 12:47:18;;;;;;;;;;;;;;;;;;1;1000000000;0;-52
2021/06/23 12:47:18;;;;;;;;;;;;;;;;;;1;1000000000;0;-51
2021/06/23 12:47:19;;;;;;;;;;;;;;;;;;1;1000000000;0;-51
2021/06/23 12:47:20;;;;;;;;;;;;;;;;;;1;1000000000;0;-51
2021/06/23 12:47:21;;;;;;;;;;;;;;;;;;1;1000000000;0;-52
2021/06/23 12:47:22;;;;;;;;;;;;;;;;;;1;1000000000;0;-55
2021/06/23 12:47:23;;;;;;;;;;;;;;;;;;1;1000000000;0;-54
2021/06/23 12:47:24;;;;;;;;;;;;;;;;;;1;1000000000;0;-53
2021/06/23 12:47:24;;;;;;;;;;;;;;;;;;1;1000000000;0;-54
2021/06/23 12:47:25;;;;;;;;;;;;;;;;;;1;1000000000;0;-55
2021/06/23 12:47:26;;;;;;;;;;;;;;;;;;1;1000000000;0;-54
2021/06/23 12:47:27;;;;;;;;;;;;;;;;;;1;1000000000;0;-53
2021/06/23 12:47:28;;;;;;;;;;;;;;;;;;1;1000000000;0;-53
2021/06/23 12:47:29;;;;;;;;;;;;;;;;;;1;1000000000;0;-55
2021/06/23 12:47:30;;;;;;;;;;;;;;;;;;1;1000000000;0;-55
2021/06/23 12:47:30;;;;;;;;;;;;;;;;;;1;1000000000;0;-55
2021/06/23 12:47:31;;;;;;;;;;;;;;;;;;1;1000000000;0;-56
2021/06/23 12:47:33;;;;;;;;;;;;;;;;;;1;1000000000;0;-56
2021/06/23 12:47:34;;;;;;;;;;;;;;;;;;1;1000000000;0;-57
2021/06/23 12:47:35;;;;;;;;;;;;;;;;;;1;1000000000;0;-49
2021/06/23 12:47:36;;;;;;;;;;;;;;;;;;1;1000000000;0;-46
2021/06/23 12:47:37;;;;;;;;;;;;;;;;;;1;1000000000;0;-45
2021/06/23 12:47:38;;;;;;;;;;;;;;;;;;1;1000000000;0;-45
2021/06/23 12:47:38;;;;;;;;;;;;;;;;;;1;1000000000;0;-45
2021/06/23 12:47:39;;;;;;;;;;;;;;;;;;1;1000000000;0;-45
2021/06/23 12:47:40;;;;;;;;;;;;;;;;;;1;1000000000;0;-52
2021/06/23 12:47:41;;;;;;;;;;;;;;;;;;1;1000000000;0;-53
2021/06/23 12:47:42;;;;;;;;;;;;;;;;;;1;1000000000;0;-55
2021/06/23 12:47:43;;;;;;;;;;;;;;;;;;1;1000000000;0;-54
2021/06/23 12:47:43;;;;;;;;;;;;;;;;;;1;1000000000;0;-54
2021/06/23 12:47:44;;;;;;;;;;;;;;;;;;1;1000000000;0;-53
2021/06/23 12:47:45;;;;;;;;;;;;;;;;;;1;1000000000;0;-53
2021/06/23 12:47:46;;;;;;;;;;;;;;;;;;1;1000000000;0;-55
2021/06/23 12:47:46;;;;;;;;;;;;;;;;;;1;1000000000;0;-52
2021/06/23 12:47:47;;;;;;;;;;;;;;;;;;1;1000000000;0;-53
2021/06/23 12:47:48;;;;;;;;;;;;;;;;;;1;1000000000;0;-53
2021/06/23 12:47:49;;;;;;;;;;;;;;;;;;1;1000000000;0;-53
2021/06/23 12:47:50;;;;;;;;;;;;;;;;;;1;1000000000;0;-53
2021/06/23 12:47:50;;;;;;;;;;;;;;;;;;1;1000000000;0;-54
2021/06/23 12:47:51;;;;;;;;;;;;;;;;;;1;1000000000;0;-53
2021/06/23 12:47:52;;;;;;;;;;;;;;;;;;1;1000000000;0;-53
2021/06/23 12:47:53;;;;;;;;;;;;;;;;;;1;1000000000;0;-51
2021/06/23 12:47:54;;;;;;;;;;;;;;;;;;1;1000000000;0;-53
2021/06/23 12:47:55;;;;;;;;;;;;;;;;;;1;1000000000;0;-53
2021/06/23 12:47:56;;;;;;;;;;;;;;;;;;1;1000000000;0;-57
2021/06/23 12:47:56;;;;;;;;;;;;;;;;;;1;1000000000;0;-58
2021/06/23 12:47:57;;;;;;;;;;;;;;;;;;1;1000000000;0;-50
2021/06/23 12:47:58;;;;;;;;;;;;;;;;;;1;1000000000;0;-50
2021/06/23 12:47:59;;;;;;;;;;;;;;;;;;1;1000000000;0;-52
2021/06/23 12:48:00;;;;;;;;;;;;;;;;;;1;1000000000;0;-54
2021/06/23 12:48:01;;;;;;;;;;;;;;;;;;1;1000000000;0;-53
2021/06/23 12:48:02;;;;;;;;;;;;;;;;;;1;1000000000;0;-52
2021/06/23 12:48:03;;;;;;;;;;;;;;;;;;1;1000000000;0;-52
2021/06/23 12:48:04;;;;;;;;;;;;;;;;;;1;1000000000;0;-54
2021/06/23 12:48:05;;;;;;;;;;;;;;;;;;1;1000000000;0;-54
2021/06/23 12:48:05;;;;;;;;;;;;;;;;;;1;1000000000;0;-54
2021/06/23 12:48:06;;;;;;;;;;;;;;;;;;1;1000000000;0;-54
2021/06/23 12:48:10;;;;;;;;;;;;;;;;;;1;1000000000;0;-52
2021/06/23 12:48:11;;;;;;;;;;;;;;;;;;1;1000000000;0;-50
2021/06/23 12:48:12;;;;;;;;;;;;;;;;;;1;1000000000;0;-51
2021/06/23 12:48:13;;;;;;;;;;;;;;;;;;1;1000000000;0;-51
2021/06/23 12:48:14;;;;;;;;;;;;;;;;;;1;1000000000;0;-49
2021/06/23 12:48:14;;;;;;;;;;;;;;;;;;1;1000000000;0;-49
2021/06/23 12:48:15;;;;;;;;;;;;;;;;;;1;1000000000;0;-52
2021/06/23 12:48:16;;;;;;;;;;;;;;;;;;1;1000000000;0;-53
2021/06/23 12:48:17;;;;;;;;;;;;;;;;;;1;1000000000;0;-55
2021/06/23 12:48:17;;;;;;;;;;;;;;;;;;1;1000000000;0;-53
2021/06/23 12:48:18;;;;;;;;;;;;;;;;;;1;1000000000;0;-53
2021/06/23 12:48:19;;;;;;;;;;;;;;;;;;1;1000000000;0;-56
2021/06/23 12:48:20;;;;;;;;;;;;;;;;;;1;1000000000;0;-53
2021/06/23 12:48:21;;;;;;;;;;;;;;;;;;1;1000000000;0;-54
2021/06/23 12:48:23;;;;;;;;;;;;;;;;;;1;1000000000;0;-52
2021/06/23 12:48:25;;;;;;;;;;;;;;;;;;1;1000000000;0;-52
2021/06/23 12:48:25;;;;;;;;;;;;;;;;;;1;1000000000;0;-52
2021/06/23 12:48:26;;;;;;;;;;;;;;;;;;1;1000000000;0;-50
2021/06/23 12:48:27;;;;;;;;;;;;;;;;;;1;1000000000;0;-58
2021/06/23 12:48:28;;;;;;;;;;;;;;;;;;1;1000000000;0;-59
2021/06/23 12:48:29;;;;;;;;;;;;;;;;;;1;1000000000;0;-52
2021/06/23 12:48:30;;;;;;;;;;;;;;;;;;1;1000000000;0;-56
2021/06/23 12:48:31;;;;;;;;;;;;;;;;;;1;1000000000;0;-57
2021/06/23 12:48:31;;;;;;;;;;;;;;;;;;1;1000000000;0;-50
2021/06/23 12:48:32;;;;;;;;;;;;;;;;;;1;1000000000;0;-56
2021/06/23 12:48:33;;;;;;;;;;;;;;;;;;1;1000000000;0;-51
2021/06/23 12:48:34;;;;;;;;;;;;;;;;;;1;1000000000;0;-52
2021/06/23 12:48:35;;;;;;;;;;;;;;;;;;1;1000000000;0;-50
2021/06/23 12:48:36;;;;;;;;;;;;;;;;;;1;1000000000;0;-49
2021/06/23 12:48:37;;;;;;;;;;;;;;;;;;1;1000000000;0;-51
2021/06/23 12:48:37;;;;;;;;;;;;;;;;;;1;1000000000;0;-52
2021/06/23 12:48:39;;;;;;;;;;;;;;;;;;1;1000000000;0;-51
2021/06/23 12:48:40;;;;;;;;;;;;;;;;;;1;1000000000;0;-50
2021/06/23 12:48:41;;;;;;;;;;;;;;;;;;1;1000000000;0;-50
2021/06/23 12:48:45;;;;;;;;;;;;;;;;;;1;1000000000;0;-50
2021/06/23 12:48:46;;;;;;;;;;;;;;;;;;1;1000000000;0;-51
2021/06/23 12:48:47;;;;;;;;;;;;;;;;;;1;1000000000;0;-52
2021/06/23 12:48:48;;;;;;;;;;;;;;;;;;1;1000000000;0;-50
2021/06/23 12:48:48;;;;;;;;;;;;;;;;;;1;1000000000;0;-51
2021/06/23 12:48:49;;;;;;;;;;;;;;;;;;1;1000000000;0;-50
2021/06/23 12:48:50;;;;;;;;;;;;;;;;;;1;1000000000;0;-52
2021/06/23 12:48:51;;;;;;;;;;;;;;;;;;1;1000000000;0;-51
2021/06/23 12:48:52;;;;;;;;;;;;;;;;;;1;1000000000;0;-51
2021/06/23 12:48:53;;;;;;;;;;;;;;;;;;1;1000000000;0;-52
2021/06/23 12:48:54;;;;;;;;;;;;;;;;;;1;1000000000;0;-53
2021/06/23 12:48:54;;;;;;;;;;;;;;;;;;1;1000000000;0;-51
2021/06/23 12:48:55;;;;;;;;;;;;;;;;;;1;1000000000;0;-51
2021/06/23 12:48:56;;;;;;;;;;;;;;;;;;1;1000000000;0;-51
2021/06/23 12:48:57;;;;;;;;;;;;;;;;;;1;1000000000;0;-51
2021/06/23 12:48:58;;;;;;;;;;;;;;;;;;1;1000000000;0;-51
2021/06/23 12:48:59;;;;;;;;;;;;;;;;;;1;1000000000;0;-52
2021/06/23 12:49:00;;;;;;;;;;;;;;;;;;1;1000000000;0;-53
2021/06/23 12:49:00;;;;;;;;;;;;;;;;;;1;1000000000;0;-48
2021/06/23 12:49:02;;;;;;;;;;;;;;;;;;1;1000000000;0;-42
2021/06/23 12:49:02;;;;;;;;;;;;;;;;;;1;1000000000;0;-43
2021/06/23 12:49:03;;;;;;;;;;;;;;;;;;1;1000000000;0;-40
2021/06/23 12:49:04;;;;;;;;;;;;;;;;;;1;1000000000;0;-44
2021/06/23 12:49:05;;;;;;;;;;;;;;;;;;1;1000000000;0;-43
2021/06/23 12:49:06;;;;;;;;;;;;;;;;;;1;1000000000;0;-50
2021/06/23 12:49:07;;;;;;;;;;;;;;;;;;1;1000000000;0;-41
2021/06/23 12:49:08;;;;;;;;;;;;;;;;;;1;1000000000;0;-46
2021/06/23 12:49:09;;;;;;;;;;;;;;;;;;1;1000000000;0;-49
2021/06/23 12:49:09;;;;;;;;;;;;;;;;;;1;1000000000;0;-53
2021/06/23 12:49:10;;;;;;;;;;;;;;;;;;1;1000000000;0;-55
2021/06/23 12:49:11;;;;;;;;;;;;;;;;;;1;1000000000;0;-56
2021/06/23 12:49:12;;;;;;;;;;;;;;;;;;1;1000000000;0;-54
2021/06/23 12:49:13;;;;;;;;;;;;;;;;;;1;1000000000;0;-54
2021/06/23 12:49:14;;;;;;;;;;;;;;;;;;1;1000000000;0;-56
2021/06/23 12:49:15;;;;;;;;;;;;;;;;;;1;1000000000;0;-51
2021/06/23 12:49:16;;;;;;;;;;;;;;;;;;1;1000000000;0;-48
2021/06/23 12:49:17;;;;;;;;;;;;;;;;;;1;1000000000;0;-48
2021/06/23 12:49:18;;;;;;;;;;;;;;;;;;1;1000000000;0;-59